Time;durP1;ratioP1;P1;durP2;ratioP2;P2;SDS_P1;SDS_P2;PMS_P1;PMS_P2;Temp;Humidity;BMP_temperature;BMP_pressure;BME280_temperature;BME280_humidity;BME280_pressure;Samples;Min_cycle;Max_cycle;Signal;HPM_P1;HPM_P2
2022/01/25 00:15:58;;;;;;;166.80;45.03;;;4.70;95.80;;;;;;5079341;28;20234;-81
2022/01/25 00:26:39;;;;;;;119.13;43.50;;;4.70;95.80;;;;;;5078393;28;20558;-81
2022/01/25 00:31:35;;;;;;;127.97;46.07;;;4.80;95.80;;;;;;5080156;28;20223;-81
2022/01/25 00:34:05;;;;;;;102.67;47.33;;;4.80;95.80;;;;;;5061483;28;20204;-81
2022/01/25 00:36:40;;;;;;;134.30;46.53;;;4.80;95.80;;;;;;5083837;28;20311;-81
2022/01/25 00:39:08;;;;;;;164.07;48.93;;;4.80;95.80;;;;;;5063383;28;20230;-81
2022/01/25 00:41:35;;;;;;;185.70;47.73;;;4.90;95.80;;;;;;5062475;28;20237;-81
2022/01/25 00:44:03;;;;;;;127.17;47.13;;;4.90;95.80;;;;;;5074905;28;20206;-81
2022/01/25 00:46:31;;;;;;;131.03;48.00;;;4.90;95.80;;;;;;5077534;28;20234;-82
2022/01/25 00:49:06;;;;;;;197.60;51.63;;;4.90;95.80;;;;;;5061184;28;20209;-82
2022/01/25 00:56:39;;;;;;;154.93;48.53;;;4.90;95.80;;;;;;5076922;28;20235;-81
2022/01/25 00:59:09;;;;;;;142.47;49.67;;;5.00;95.80;;;;;;5077191;28;20188;-81
2022/01/25 01:01:38;;;;;;;145.40;52.57;;;5.00;95.80;;;;;;5065478;28;20223;-81
2022/01/25 01:04:06;;;;;;;124.33;47.67;;;5.00;95.80;;;;;;5076873;28;20202;-82
2022/01/25 01:06:34;;;;;;;133.53;46.83;;;5.00;95.80;;;;;;5077289;28;20652;-81
2022/01/25 01:09:03;;;;;;;135.10;49.60;;;5.00;95.80;;;;;;5060407;28;20203;-82
2022/01/25 01:16:18;;;;;;;142.40;46.30;;;5.00;95.80;;;;;;5077140;28;20546;-82
2022/01/25 01:45:27;;;;;;;156.93;48.97;;;5.00;95.90;;;;;;5075983;28;20210;-81
2022/01/25 01:48:02;;;;;;;126.27;47.37;;;5.00;95.90;;;;;;5059459;28;20208;-82
2022/01/25 01:50:33;;;;;;;145.40;47.63;;;5.00;95.90;;;;;;5059584;28;20290;-81
2022/01/25 01:53:03;;;;;;;147.43;49.93;;;5.00;95.90;;;;;;5075574;28;20610;-82
2022/01/25 02:00:05;;;;;;;126.37;45.70;;;5.00;95.80;;;;;;5002780;28;20195;-81
2022/01/25 02:02:39;;;;;;;128.97;46.63;;;5.00;95.80;;;;;;5003535;28;20276;-81
2022/01/25 02:05:07;;;;;;;140.23;47.87;;;5.00;95.70;;;;;;5006565;28;20305;-81
2022/01/25 02:07:35;;;;;;;128.73;46.73;;;5.00;95.70;;;;;;4987991;28;20299;-81
2022/01/25 02:10:05;;;;;;;121.27;49.50;;;5.00;95.70;;;;;;5004209;28;20644;-81
2022/01/25 02:12:36;;;;;;;135.57;50.37;;;5.00;95.70;;;;;;5004211;28;20224;-81
2022/01/25 02:15:05;;;;;;;134.30;49.20;;;5.00;95.70;;;;;;5003201;28;20273;-81
2022/01/25 02:17:55;;;;;;;119.27;47.53;;;5.00;95.80;;;;;;5003169;28;20226;-81
2022/01/25 02:23:23;;;;;;;135.00;49.47;;;5.00;95.70;;;;;;5002700;28;20208;-81
2022/01/25 02:25:53;;;;;;;132.40;50.23;;;5.10;95.70;;;;;;5015577;28;20723;-81
2022/01/25 02:28:23;;;;;;;122.87;48.97;;;5.00;95.70;;;;;;5082696;28;20211;-81
2022/01/25 02:30:51;;;;;;;139.60;48.17;;;5.00;95.70;;;;;;5099847;28;20197;-81
2022/01/25 02:33:20;;;;;;;129.83;51.90;;;5.00;95.60;;;;;;5099658;28;20239;-81
2022/01/25 02:35:47;;;;;;;137.40;50.43;;;5.10;95.70;;;;;;5099561;28;20206;-82
2022/01/25 02:38:21;;;;;;;137.83;53.07;;;5.10;95.60;;;;;;5099887;28;20288;-81
2022/01/25 02:40:55;;;;;;;129.20;51.50;;;5.10;95.60;;;;;;5099916;28;20194;-82
2022/01/25 02:43:24;;;;;;;127.80;52.10;;;5.10;95.60;;;;;;5099387;28;20291;-82
2022/01/25 02:48:55;;;;;;;115.53;50.03;;;5.10;95.60;;;;;;5098893;28;20237;-81
2022/01/25 02:51:38;;;;;;;134.30;53.47;;;5.10;95.60;;;;;;5081944;28;20557;-82
2022/01/25 02:54:10;;;;;;;120.93;52.47;;;5.10;95.60;;;;;;5098503;28;20191;-82
2022/01/25 02:57:15;;;;;;;132.83;53.93;;;5.10;95.70;;;;;;5076744;28;20229;-82
2022/01/25 03:13:34;;;;;;;130.03;51.23;;;5.10;95.60;;;;;;5036985;28;20192;-82
2022/01/25 03:17:13;;;;;;;147.53;53.73;;;5.00;95.60;;;;;;5007283;28;20271;-89
2022/01/25 03:29:54;;;;;;;149.00;52.80;;;5.00;95.70;;;;;;4938920;29;20281;-88
2022/01/25 03:36:40;;;;;;;154.07;53.00;;;5.00;95.70;;;;;;4964244;28;20279;-90
2022/01/25 03:39:07;;;;;;;183.93;57.97;;;4.90;95.70;;;;;;5035492;28;20209;-89
2022/01/25 03:41:35;;;;;;;183.30;56.90;;;5.00;95.80;;;;;;5073154;28;20588;-90
2022/01/25 03:44:05;;;;;;;174.10;59.93;;;5.00;95.80;;;;;;5083840;28;20328;-89
2022/01/25 03:51:54;;;;;;;161.53;56.00;;;5.00;96.20;;;;;;5095481;28;20203;-89
2022/01/25 03:54:23;;;;;;;154.60;54.73;;;5.00;95.90;;;;;;5096533;28;20198;-88
2022/01/25 04:05:36;;;;;;;170.20;51.77;;;4.90;95.70;;;;;;5098920;28;20253;-88
2022/01/25 04:08:05;;;;;;;179.50;50.67;;;4.80;95.70;;;;;;5082795;28;20613;-88
2022/01/25 04:10:32;;;;;;;164.77;55.77;;;4.70;95.80;;;;;;5081619;28;20274;-88
2022/01/25 04:13:00;;;;;;;229.70;53.73;;;4.60;95.80;;;;;;5082014;28;20209;-88
2022/01/25 04:15:41;;;;;;;189.77;49.10;;;4.60;96.00;;;;;;5098725;28;20234;-85
2022/01/25 04:20:56;;;;;;;233.27;52.37;;;4.50;96.20;;;;;;5082430;28;20198;-88
2022/01/25 04:26:14;;;;;;;209.03;54.77;;;4.50;96.40;;;;;;5098470;28;20213;-89
2022/01/25 04:28:44;;;;;;;262.73;57.63;;;4.40;96.50;;;;;;5098512;28;20549;-89
2022/01/25 04:31:14;;;;;;;162.70;53.20;;;4.40;96.60;;;;;;5099420;27;20211;-89
2022/01/25 04:50:55;;;;;;;192.60;57.23;;;4.60;96.90;;;;;;5121178;27;20518;-88
2022/01/25 04:55:57;;;;;;;171.87;53.63;;;4.60;96.80;;;;;;5118905;27;20202;-88
2022/01/25 04:58:39;;;;;;;173.63;54.00;;;4.60;96.70;;;;;;5102163;27;20271;-88
2022/01/25 05:01:08;;;;;;;146.57;52.97;;;4.60;96.70;;;;;;5119284;27;20190;-88
2022/01/25 05:04:03;;;;;;;154.10;53.20;;;4.70;96.70;;;;;;5118681;27;20245;-89
2022/01/25 05:06:25;;;;;;;156.13;52.30;;;4.70;96.70;;;;;;5137129;27;20196;-89
2022/01/25 05:08:56;;;;;;;134.87;49.13;;;4.70;96.60;;;;;;5118880;27;20651;-88
2022/01/25 05:14:17;;;;;;;132.53;51.70;;;4.70;96.40;;;;;;5119497;27;20212;-88
2022/01/25 05:17:00;;;;;;;139.17;52.10;;;4.60;96.60;;;;;;5119190;28;20241;-89
2022/01/25 05:22:04;;;;;;;151.50;51.23;;;4.50;96.10;;;;;;5120138;28;20203;-88
2022/01/25 05:22:39;;;;;;;134.93;48.53;;;4.50;96.10;;;;;;5140885;28;20197;-89
2022/01/25 05:25:07;;;;;;;134.23;49.50;;;4.40;96.10;;;;;;5119612;28;20204;-89
2022/01/25 05:27:39;;;;;;;138.97;49.53;;;4.40;96.10;;;;;;5119652;28;20197;-90
2022/01/25 05:30:08;;;;;;;160.23;53.87;;;4.30;95.90;;;;;;5104759;27;20265;-89
2022/01/25 05:32:38;;;;;;;218.07;57.23;;;4.30;95.90;;;;;;5123327;27;20655;-90
2022/01/25 05:35:05;;;;;;;162.73;54.03;;;4.30;95.90;;;;;;5123125;27;20212;-89
2022/01/25 05:42:29;;;;;;;153.73;51.37;;;4.30;96.00;;;;;;5075583;28;20190;-88
2022/01/25 05:45:17;;;;;;;274.00;56.03;;;4.30;95.90;;;;;;5061546;28;20816;-89
2022/01/25 05:47:45;;;;;;;364.87;58.00;;;4.30;96.00;;;;;;5077825;28;20510;-90
2022/01/25 05:50:14;;;;;;;260.13;55.83;;;4.30;96.00;;;;;;5077829;28;20208;-88
2022/01/25 05:52:45;;;;;;;273.97;57.80;;;4.30;96.00;;;;;;5063445;28;20275;-89
2022/01/25 05:55:12;;;;;;;213.50;55.00;;;4.30;96.00;;;;;;5080075;28;20198;-89
2022/01/25 05:57:41;;;;;;;232.17;50.10;;;4.30;96.00;;;;;;5066595;28;20217;-89
2022/01/25 06:00:09;;;;;;;218.50;51.37;;;4.40;96.10;;;;;;5046686;28;20195;-89
2022/01/25 06:02:40;;;;;;;323.33;54.47;;;4.40;96.10;;;;;;5104914;27;20194;-89
2022/01/25 06:05:07;;;;;;;235.07;49.83;;;4.40;96.00;;;;;;5106516;27;20198;-89
2022/01/25 06:07:35;;;;;;;216.63;50.63;;;4.30;95.90;;;;;;5122818;27;20237;-89
2022/01/25 06:10:06;;;;;;;174.13;49.07;;;4.30;95.90;;;;;;5122386;27;20321;-88
2022/01/25 06:12:35;;;;;;;190.17;48.17;;;4.30;95.90;;;;;;5106211;27;20634;-89
2022/01/25 06:15:05;;;;;;;229.07;50.63;;;4.30;95.80;;;;;;5095479;28;20251;-90
2022/01/25 06:17:35;;;;;;;164.77;46.40;;;4.20;95.70;;;;;;5085103;28;20260;-90
2022/01/25 06:20:07;;;;;;;220.10;51.47;;;4.30;95.70;;;;;;5084961;28;20202;-90
2022/01/25 06:22:35;;;;;;;226.73;49.30;;;4.20;95.70;;;;;;5087394;28;20199;-90
2022/01/25 06:25:05;;;;;;;176.20;50.43;;;4.20;95.70;;;;;;5104008;28;20218;-90
2022/01/25 06:27:38;;;;;;;188.50;50.90;;;4.20;95.80;;;;;;5082940;28;20211;-90
2022/01/25 06:30:18;;;;;;;168.17;50.00;;;4.20;95.80;;;;;;5097080;28;20199;-90
2022/01/25 06:32:47;;;;;;;173.07;48.00;;;4.20;95.90;;;;;;5090180;28;20240;-90
2022/01/25 06:35:17;;;;;;;191.33;53.17;;;4.20;95.90;;;;;;5087761;28;20207;-90
2022/01/25 06:38:55;;;;;;;165.27;50.80;;;4.20;95.90;;;;;;5024515;28;20220;-89
2022/01/25 06:41:26;;;;;;;180.00;47.00;;;4.20;95.90;;;;;;5022279;28;20200;-90
2022/01/25 06:43:54;;;;;;;142.03;46.77;;;4.20;95.90;;;;;;5073703;28;20562;-90
2022/01/25 06:46:23;;;;;;;188.57;50.33;;;4.20;95.90;;;;;;5084475;28;20722;-90
2022/01/25 06:48:51;;;;;;;219.97;55.27;;;4.20;95.90;;;;;;5068166;28;20216;-90
2022/01/25 06:55:54;;;;;;;166.20;47.67;;;4.30;96.00;;;;;;5077326;28;20210;-90
2022/01/25 07:02:50;;;;;;;136.03;44.50;;;4.20;95.80;;;;;;5078579;28;20185;-82
2022/01/25 07:10:02;;;;;;;283.70;52.87;;;4.20;95.80;;;;;;5078178;28;20185;-82
2022/01/25 07:12:32;;;;;;;160.03;48.83;;;4.20;95.80;;;;;;5061310;28;20194;-82
2022/01/25 07:15:00;;;;;;;168.50;47.57;;;4.20;95.90;;;;;;5044951;28;20199;-82
2022/01/25 07:17:52;;;;;;;175.80;49.43;;;4.20;95.90;;;;;;5065214;28;20210;-82
2022/01/25 07:20:40;;;;;;;197.97;49.90;;;4.20;96.00;;;;;;5060965;28;20631;-82
2022/01/25 07:23:13;;;;;;;391.10;56.00;;;4.30;96.00;;;;;;5061531;28;20206;-82
2022/01/25 07:30:18;;;;;;;218.13;50.97;;;4.40;96.10;;;;;;5057512;28;20659;-82
2022/01/25 07:32:45;;;;;;;300.33;60.07;;;4.40;96.00;;;;;;5025146;28;20663;-82
2022/01/25 07:35:32;;;;;;;188.80;55.40;;;4.40;96.00;;;;;;5026564;28;20201;-82
2022/01/25 07:38:05;;;;;;;189.90;54.30;;;4.40;96.00;;;;;;5024877;28;20249;-82
2022/01/25 07:40:35;;;;;;;174.87;54.77;;;4.50;96.30;;;;;;5040164;28;20207;-81
2022/01/25 07:43:13;;;;;;;175.17;55.20;;;4.50;96.00;;;;;;5041926;28;20322;-82
2022/01/25 07:45:53;;;;;;;171.97;53.67;;;4.50;96.00;;;;;;5086182;28;20195;-82
2022/01/25 07:48:26;;;;;;;164.67;52.80;;;4.60;96.10;;;;;;5084589;28;20207;-83
2022/01/25 07:51:01;;;;;;;172.27;53.13;;;4.60;96.10;;;;;;5085503;28;20205;-83
2022/01/25 07:53:38;;;;;;;165.10;52.30;;;4.60;96.00;;;;;;5068908;28;20293;-82
2022/01/25 07:56:36;;;;;;;167.13;55.67;;;4.60;96.00;;;;;;5105747;28;20188;-82
2022/01/25 08:03:34;;;;;;;146.97;52.77;;;4.70;96.10;;;;;;5119071;28;20178;-82
2022/01/25 08:06:16;;;;;;;171.90;56.80;;;4.70;96.00;;;;;;5086366;28;20205;-82
2022/01/25 08:09:03;;;;;;;153.17;56.47;;;4.80;96.10;;;;;;5078709;28;20236;-82
2022/01/25 08:12:00;;;;;;;181.33;58.20;;;4.80;96.10;;;;;;5083707;28;20302;-82
2022/01/25 08:19:20;;;;;;;179.93;59.27;;;4.90;96.00;;;;;;5034884;28;20606;-81
2022/01/25 08:22:09;;;;;;;149.57;53.70;;;5.00;96.00;;;;;;5080784;28;20669;-81
2022/01/25 08:24:57;;;;;;;158.53;54.70;;;5.00;96.00;;;;;;5062377;28;20661;-81
2022/01/25 08:27:51;;;;;;;140.27;52.47;;;5.10;96.10;;;;;;5033326;28;20200;-81
2022/01/25 08:30:45;;;;;;;156.73;55.17;;;5.20;96.10;;;;;;5027139;28;20297;-82
2022/01/25 08:33:41;;;;;;;142.77;55.67;;;5.30;96.10;;;;;;5067883;28;20624;-81
2022/01/25 08:40:57;;;;;;;127.20;48.30;;;5.50;96.00;;;;;;5040895;28;20619;-81
2022/01/25 08:43:45;;;;;;;125.37;50.40;;;5.70;95.90;;;;;;5020009;28;20209;-81
2022/01/25 08:50:58;;;;;;;117.50;47.60;;;5.80;95.70;;;;;;4978595;28;20555;-81
2022/01/25 08:53:59;;;;;;;129.13;48.33;;;5.90;95.60;;;;;;4962018;28;20235;-81
2022/01/25 08:56:54;;;;;;;127.03;50.60;;;5.90;95.40;;;;;;4973484;28;20204;-81
2022/01/25 08:59:44;;;;;;;122.30;48.67;;;6.00;95.40;;;;;;4977561;28;20319;-81
2022/01/25 09:02:16;;;;;;;128.00;49.20;;;6.10;95.50;;;;;;4945538;28;20199;-81
2022/01/25 09:04:46;;;;;;;113.57;47.40;;;6.10;95.30;;;;;;4944928;28;20209;-81
2022/01/25 09:07:19;;;;;;;113.27;48.57;;;6.20;95.20;;;;;;4960165;28;20205;-81
2022/01/25 09:10:00;;;;;;;123.43;48.33;;;6.20;95.20;;;;;;4960081;28;20205;-81
2022/01/25 09:13:07;;;;;;;126.07;50.77;;;6.40;95.20;;;;;;4955792;28;20204;-81
2022/01/25 09:15:44;;;;;;;117.33;49.70;;;6.40;95.00;;;;;;4955135;28;20231;-82
2022/01/25 09:18:16;;;;;;;119.40;47.23;;;6.50;94.90;;;;;;4972540;28;20243;-82
2022/01/25 09:21:40;;;;;;;124.27;48.23;;;6.50;94.60;;;;;;5062437;28;20945;-69
2022/01/25 09:24:08;;;;;;;112.20;46.77;;;6.60;94.70;;;;;;5057250;28;20250;-69
2022/01/25 09:26:36;;;;;;;105.60;43.47;;;6.60;94.50;;;;;;5060382;28;20205;-69
2022/01/25 09:29:03;;;;;;;103.17;43.83;;;6.70;94.50;;;;;;5056802;28;20206;-69
2022/01/25 09:31:31;;;;;;;105.43;45.87;;;6.70;94.40;;;;;;5066365;28;20284;-69
2022/01/25 09:33:59;;;;;;;109.93;46.63;;;6.70;94.20;;;;;;5056849;28;20292;-69
2022/01/25 09:36:26;;;;;;;102.67;47.47;;;6.80;93.90;;;;;;5058155;28;20601;-70
2022/01/25 09:38:55;;;;;;;87.80;39.33;;;6.70;93.70;;;;;;5060194;28;20212;-70
2022/01/25 09:41:22;;;;;;;105.03;46.20;;;6.80;93.80;;;;;;5061759;28;20305;-69
2022/01/25 09:43:50;;;;;;;99.47;44.90;;;6.80;93.70;;;;;;5063741;28;20201;-69
2022/01/25 09:46:17;;;;;;;101.63;44.07;;;6.80;93.60;;;;;;5057384;28;20212;-69
2022/01/25 09:48:44;;;;;;;107.20;47.17;;;6.80;93.30;;;;;;5060416;28;20202;-69
2022/01/25 09:51:11;;;;;;;89.53;40.53;;;6.80;93.20;;;;;;5066415;28;20565;-69
2022/01/25 09:53:40;;;;;;;94.50;41.80;;;6.80;93.10;;;;;;5051135;28;20207;-69
2022/01/25 09:56:07;;;;;;;91.13;42.47;;;6.80;93.10;;;;;;5052969;28;20564;-69
2022/01/25 09:58:36;;;;;;;103.97;42.20;;;6.80;92.90;;;;;;5060549;28;20295;-69
2022/01/25 10:01:05;;;;;;;95.60;43.07;;;6.80;92.80;;;;;;5066467;28;20286;-69
2022/01/25 10:03:37;;;;;;;86.60;37.47;;;6.80;92.80;;;;;;5050000;28;20206;-69
2022/01/25 10:06:15;;;;;;;75.63;34.37;;;6.80;92.40;;;;;;5041808;28;20216;-70
2022/01/25 10:08:44;;;;;;;71.53;32.30;;;6.80;91.30;;;;;;5055348;28;20198;-70
2022/01/25 10:11:14;;;;;;;78.50;36.40;;;6.80;91.60;;;;;;5056746;28;20201;-69
2022/01/25 10:13:48;;;;;;;75.20;35.40;;;6.80;91.90;;;;;;5065233;28;20214;-69
2022/01/25 10:16:28;;;;;;;76.47;35.10;;;6.80;92.00;;;;;;5056946;28;20646;-70
2022/01/25 10:18:58;;;;;;;86.53;39.23;;;6.80;92.00;;;;;;5064876;28;20202;-69
2022/01/25 10:21:31;;;;;;;88.97;37.67;;;6.90;92.00;;;;;;5060551;28;20241;-69
2022/01/25 10:24:04;;;;;;;82.80;36.93;;;6.90;91.90;;;;;;5061637;28;20220;-69
2022/01/25 10:26:41;;;;;;;72.87;34.40;;;6.90;91.80;;;;;;5057050;28;20630;-70
2022/01/25 10:29:24;;;;;;;75.30;35.73;;;6.90;91.70;;;;;;5057474;28;20197;-70
2022/01/25 10:31:56;;;;;;;87.00;39.53;;;7.00;91.50;;;;;;5043831;28;20218;-69
2022/01/25 10:34:25;;;;;;;80.63;36.90;;;7.00;91.50;;;;;;5048891;28;20741;-69
2022/01/25 10:36:53;;;;;;;90.37;40.23;;;7.00;91.50;;;;;;5046947;28;20210;-69
2022/01/25 10:39:30;;;;;;;93.93;40.10;;;7.00;91.50;;;;;;5047290;28;20214;-69
2022/01/25 10:42:24;;;;;;;101.63;41.67;;;7.10;91.80;;;;;;5053302;28;20668;-69
2022/01/25 10:45:02;;;;;;;93.17;40.43;;;7.10;91.40;;;;;;5040633;28;20245;-70
2022/01/25 10:47:46;;;;;;;90.63;40.43;;;7.10;91.40;;;;;;5046713;28;20341;-70
2022/01/25 10:50:31;;;;;;;90.17;38.07;;;7.10;91.40;;;;;;5040663;28;20202;-70
2022/01/25 10:53:09;;;;;;;74.17;33.73;;;7.20;91.40;;;;;;5045650;28;20216;-70
2022/01/25 10:55:45;;;;;;;77.97;35.03;;;7.20;91.30;;;;;;5044082;28;20208;-71
2022/01/25 10:58:14;;;;;;;73.40;35.33;;;7.20;91.00;;;;;;5052462;28;20224;-70
2022/01/25 11:00:44;;;;;;;78.40;34.37;;;7.20;90.70;;;;;;5045898;28;20229;-71
2022/01/25 11:03:28;;;;;;;76.17;33.27;;;7.20;90.30;;;;;;5046055;28;20615;-71
2022/01/25 11:05:57;;;;;;;70.17;32.90;;;7.30;90.20;;;;;;5040841;28;20199;-70
2022/01/25 11:08:27;;;;;;;72.40;32.87;;;7.30;90.10;;;;;;5052140;28;20206;-70
2022/01/25 11:10:58;;;;;;;72.80;34.93;;;7.40;90.10;;;;;;5045296;28;20217;-70
2022/01/25 11:15:57;;;;;;;65.37;31.57;;;7.50;90.00;;;;;;5042814;28;20210;-70
2022/01/25 11:18:25;;;;;;;71.80;34.73;;;7.60;89.90;;;;;;5040126;28;20209;-70
2022/01/25 11:20:54;;;;;;;78.07;35.43;;;7.60;89.30;;;;;;5044806;28;20269;-69
2022/01/25 11:23:22;;;;;;;84.00;35.20;;;7.70;89.10;;;;;;5045614;28;20214;-69
2022/01/25 11:25:50;;;;;;;69.23;34.43;;;7.70;88.80;;;;;;5049122;28;20264;-70
2022/01/25 11:28:17;;;;;;;77.20;35.50;;;7.80;88.50;;;;;;5045071;28;20217;-70
2022/01/25 11:30:45;;;;;;;76.87;35.00;;;7.80;88.40;;;;;;5046835;28;20210;-71
2022/01/25 11:33:13;;;;;;;75.97;34.77;;;7.90;88.00;;;;;;5046859;28;20214;-70
2022/01/25 11:35:41;;;;;;;80.87;35.60;;;7.90;87.70;;;;;;5035629;28;20215;-70
2022/01/25 11:38:09;;;;;;;74.83;34.47;;;7.90;87.60;;;;;;5036195;28;20206;-70
2022/01/25 11:40:45;;;;;;;71.43;37.00;;;7.90;87.10;;;;;;5040646;28;20219;-70
2022/01/25 11:43:16;;;;;;;68.67;32.37;;;7.90;86.90;;;;;;5030037;28;20671;-70
2022/01/25 11:45:49;;;;;;;71.23;33.20;;;7.90;84.30;;;;;;5046127;28;20570;-70
2022/01/25 11:48:23;;;;;;;70.60;34.07;;;7.80;83.90;;;;;;5044779;28;20209;-70
2022/01/25 11:50:50;;;;;;;63.83;32.27;;;7.70;85.50;;;;;;5038392;28;20203;-70
2022/01/25 11:53:23;;;;;;;64.43;31.60;;;7.70;86.50;;;;;;5036592;28;20209;-71
2022/01/25 11:55:54;;;;;;;69.67;34.20;;;7.70;86.80;;;;;;5042281;28;20260;-70
2022/01/25 11:58:29;;;;;;;64.47;30.73;;;7.80;87.30;;;;;;5045103;28;20221;-70
2022/01/25 12:01:00;;;;;;;70.73;31.87;;;7.80;87.20;;;;;;5046634;28;20300;-70
2022/01/25 12:03:34;;;;;;;72.73;32.70;;;7.90;86.90;;;;;;5032887;28;20561;-70
2022/01/25 12:06:12;;;;;;;70.90;33.43;;;8.00;86.60;;;;;;5035622;28;20206;-70
2022/01/25 12:11:40;;;;;;;67.47;31.73;;;8.20;86.30;;;;;;5042122;28;20289;-71
2022/01/25 12:14:24;;;;;;;59.70;30.63;;;8.20;85.40;;;;;;5042154;28;20249;-71
2022/01/25 12:16:54;;;;;;;62.67;32.30;;;8.20;82.40;;;;;;5036828;28;20206;-71
2022/01/25 12:19:34;;;;;;;65.97;32.20;;;8.10;81.90;;;;;;5043570;28;20224;-70
2022/01/25 12:22:01;;;;;;;64.63;32.73;;;8.00;83.00;;;;;;5050298;28;20225;-71
2022/01/25 12:27:48;;;;;;;82.17;34.60;;;7.80;83.50;;;;;;5043057;28;20642;-70
2022/01/25 12:30:30;;;;;;;70.97;32.53;;;7.80;83.60;;;;;;5042593;28;20227;-70
2022/01/25 12:33:03;;;;;;;67.73;33.77;;;7.80;84.30;;;;;;5050653;28;20552;-71
2022/01/25 12:35:54;;;;;;;68.80;33.33;;;7.80;84.30;;;;;;5041581;28;20269;-71
2022/01/25 12:38:41;;;;;;;69.80;34.07;;;7.80;84.80;;;;;;5042967;28;20553;-71
2022/01/25 12:41:18;;;;;;;74.40;34.87;;;7.90;85.00;;;;;;5050068;28;20246;-71
2022/01/25 12:43:50;;;;;;;67.27;33.60;;;7.90;85.10;;;;;;5073848;28;20213;-71
2022/01/25 12:46:21;;;;;;;70.13;33.50;;;8.00;85.00;;;;;;5045556;28;20213;-71
2022/01/25 12:48:51;;;;;;;72.73;33.13;;;8.00;82.90;;;;;;5041247;28;20313;-71
2022/01/25 12:51:26;;;;;;;62.10;30.50;;;8.00;82.80;;;;;;5056974;28;20237;-71
2022/01/25 12:53:56;;;;;;;63.33;31.23;;;8.00;83.60;;;;;;5047343;28;20216;-71
2022/01/25 12:56:34;;;;;;;78.40;33.50;;;8.00;83.80;;;;;;5043213;28;20549;-71
2022/01/25 12:59:06;;;;;;;62.53;32.63;;;8.00;83.60;;;;;;5034970;28;20210;-71
2022/01/25 13:01:37;;;;;;;64.30;31.67;;;8.00;83.80;;;;;;5046346;28;20233;-71
2022/01/25 13:04:06;;;;;;;64.53;31.93;;;8.00;84.00;;;;;;5034668;28;20210;-71
2022/01/25 13:06:43;;;;;;;67.97;33.50;;;8.10;84.20;;;;;;5063368;28;20537;-71
2022/01/25 13:09:23;;;;;;;64.07;30.23;;;8.10;84.30;;;;;;5046734;28;20213;-71
2022/01/25 13:17:16;;;;;;;61.47;30.47;;;8.20;83.70;;;;;;5044618;28;20214;-71
2022/01/25 13:19:50;;;;;;;62.07;30.73;;;8.20;83.40;;;;;;5043683;28;20248;-71
2022/01/25 13:22:21;;;;;;;69.17;32.10;;;8.20;83.20;;;;;;5030614;28;20240;-71
2022/01/25 13:25:10;;;;;;;64.07;30.13;;;8.30;83.00;;;;;;5051734;28;20269;-71
2022/01/25 13:27:51;;;;;;;69.53;33.17;;;8.30;82.80;;;;;;5075027;28;20635;-71
2022/01/25 13:30:45;;;;;;;71.33;33.50;;;8.20;83.00;;;;;;5046088;28;20201;-71
2022/01/25 13:33:18;;;;;;;65.43;33.30;;;8.20;82.30;;;;;;5044599;28;20684;-71
2022/01/25 13:35:50;;;;;;;60.63;30.67;;;8.20;82.50;;;;;;5037688;28;20720;-72
2022/01/25 13:38:19;;;;;;;71.83;31.67;;;8.20;82.80;;;;;;5040933;28;20198;-71
2022/01/25 13:41:01;;;;;;;71.60;33.40;;;8.20;83.10;;;;;;5037520;28;20234;-71
2022/01/25 13:46:24;;;;;;;64.87;31.50;;;8.30;82.90;;;;;;5037029;28;20715;-72
2022/01/25 13:48:54;;;;;;;65.33;32.03;;;8.40;82.70;;;;;;5034009;28;20638;-71
2022/01/25 13:51:24;;;;;;;64.30;31.73;;;8.40;82.20;;;;;;5039644;28;20229;-71
2022/01/25 13:54:00;;;;;;;66.27;32.43;;;8.30;82.10;;;;;;5043295;28;20218;-71
2022/01/25 13:56:33;;;;;;;60.50;31.63;;;8.30;81.50;;;;;;5042289;28;20214;-72
2022/01/25 13:59:03;;;;;;;66.43;35.13;;;8.30;81.80;;;;;;5039390;28;20214;-71
2022/01/25 14:01:32;;;;;;;63.63;32.50;;;8.20;82.10;;;;;;5038380;28;20227;-71
2022/01/25 14:04:08;;;;;;;63.63;32.43;;;8.20;82.30;;;;;;5040153;28;20233;-71
2022/01/25 14:06:39;;;;;;;71.07;34.30;;;8.10;82.20;;;;;;5042039;28;20244;-71
2022/01/25 14:09:21;;;;;;;62.47;32.13;;;8.10;82.60;;;;;;5047768;28;20209;-71
2022/01/25 14:21:31;;;;;;;71.57;34.60;;;8.00;82.90;;;;;;5039697;28;20207;-71
2022/01/25 14:25:44;;;;;;;70.03;33.67;;;7.70;83.50;;;;;;5039649;28;20210;-71
2022/01/25 14:28:21;;;;;;;60.40;30.97;;;7.70;83.70;;;;;;5043682;28;20213;-71
2022/01/25 14:30:52;;;;;;;62.73;33.03;;;7.70;83.90;;;;;;5047890;28;20205;-71
2022/01/25 14:33:28;;;;;;;58.00;32.13;;;7.70;83.90;;;;;;5042992;28;20206;-70
2022/01/25 14:36:00;;;;;;;60.90;32.57;;;7.60;83.80;;;;;;5066722;28;20217;-70
2022/01/25 14:38:33;;;;;;;55.73;30.97;;;7.60;83.80;;;;;;5048957;28;20660;-70
2022/01/25 14:41:03;;;;;;;56.90;32.03;;;7.60;83.90;;;;;;5047165;28;20222;-70
2022/01/25 14:43:53;;;;;;;63.13;32.10;;;7.50;84.00;;;;;;5049677;28;20209;-71
2022/01/25 14:46:26;;;;;;;65.57;32.47;;;7.50;84.30;;;;;;5049381;28;20219;-71
2022/01/25 14:48:56;;;;;;;63.93;33.13;;;7.50;84.30;;;;;;5039222;28;20732;-71
2022/01/25 14:51:32;;;;;;;69.77;32.80;;;7.50;84.50;;;;;;5053830;28;20665;-71
2022/01/25 14:54:00;;;;;;;65.20;33.27;;;7.50;84.60;;;;;;5045341;28;20210;-70
2022/01/25 14:56:32;;;;;;;59.83;31.03;;;7.40;84.70;;;;;;5041936;28;20270;-70
2022/01/25 14:59:23;;;;;;;62.40;29.87;;;7.40;84.50;;;;;;5051733;28;20210;-70
2022/01/25 15:02:08;;;;;;;64.30;32.23;;;7.30;84.30;;;;;;5044551;28;20676;-70
2022/01/25 15:04:42;;;;;;;63.20;32.27;;;7.30;84.60;;;;;;5047629;28;20282;-70
2022/01/25 15:07:16;;;;;;;61.93;32.80;;;7.30;84.40;;;;;;5045174;28;20280;-70
2022/01/25 15:10:01;;;;;;;66.57;33.07;;;7.20;84.40;;;;;;5068286;28;20275;-70
2022/01/25 15:12:36;;;;;;;63.93;32.10;;;7.20;84.60;;;;;;5038387;28;20260;-70
2022/01/25 15:15:09;;;;;;;57.83;31.33;;;7.20;84.90;;;;;;5044629;28;20213;-70
2022/01/25 15:17:36;;;;;;;65.17;32.40;;;7.20;85.10;;;;;;5049302;28;20260;-70
2022/01/25 15:20:06;;;;;;;63.57;32.60;;;7.20;85.20;;;;;;5044253;28;20320;-69
2022/01/25 15:22:33;;;;;;;64.50;32.93;;;7.10;85.10;;;;;;5038468;28;20224;-70
2022/01/25 15:25:01;;;;;;;67.13;33.17;;;7.10;85.20;;;;;;5040450;28;20213;-70
2022/01/25 15:27:29;;;;;;;63.70;32.60;;;7.10;85.20;;;;;;5045933;28;20215;-70
2022/01/25 15:29:58;;;;;;;62.63;31.03;;;7.10;85.40;;;;;;5047009;28;20213;-70
2022/01/25 15:32:26;;;;;;;59.40;32.43;;;7.00;85.50;;;;;;5045777;28;20210;-70
2022/01/25 15:34:54;;;;;;;61.67;30.37;;;7.00;85.50;;;;;;5037314;28;20218;-70
2022/01/25 15:37:21;;;;;;;58.93;30.77;;;7.00;85.60;;;;;;5047010;28;20624;-70
2022/01/25 15:39:48;;;;;;;61.17;32.33;;;6.90;85.10;;;;;;5047751;28;20517;-70
2022/01/25 15:42:18;;;;;;;63.13;31.57;;;6.90;85.20;;;;;;5051338;28;20761;-70
2022/01/25 15:44:46;;;;;;;61.07;30.40;;;6.80;85.40;;;;;;5043347;28;20276;-69
2022/01/25 15:47:16;;;;;;;59.00;30.23;;;6.80;85.80;;;;;;5038366;28;20205;-69
2022/01/25 15:49:44;;;;;;;77.33;32.43;;;6.80;86.00;;;;;;5044086;28;20630;-71
2022/01/25 15:52:12;;;;;;;65.20;31.27;;;6.80;86.10;;;;;;5044374;28;20666;-70
2022/01/25 15:54:41;;;;;;;59.53;29.80;;;6.80;85.80;;;;;;5045793;28;20638;-70
2022/01/25 15:57:09;;;;;;;54.60;29.57;;;6.80;86.10;;;;;;5035323;28;20214;-70
2022/01/25 15:59:37;;;;;;;60.20;30.27;;;6.80;86.20;;;;;;5040500;28;20213;-70
2022/01/25 16:02:11;;;;;;;66.53;32.20;;;6.70;85.30;;;;;;5041811;28;20233;-70
2022/01/25 16:04:44;;;;;;;67.03;32.47;;;6.70;85.40;;;;;;5042942;28;20206;-71
2022/01/25 16:07:19;;;;;;;53.53;29.03;;;6.60;85.60;;;;;;5039386;28;20301;-70
2022/01/25 16:09:53;;;;;;;62.97;31.77;;;6.60;86.20;;;;;;5040706;28;20233;-70
2022/01/25 16:12:21;;;;;;;61.00;30.93;;;6.60;86.60;;;;;;5043368;28;20217;-70
2022/01/25 16:14:48;;;;;;;66.33;31.33;;;6.50;86.90;;;;;;5043438;28;20213;-70
2022/01/25 16:17:15;;;;;;;60.70;31.37;;;6.60;87.20;;;;;;5042007;28;20213;-70
2022/01/25 16:19:42;;;;;;;68.27;31.47;;;6.50;87.30;;;;;;5045909;28;20253;-70
2022/01/25 16:22:10;;;;;;;67.23;32.57;;;6.50;87.40;;;;;;5036800;28;20217;-69
2022/01/25 16:24:37;;;;;;;61.07;28.83;;;6.50;88.10;;;;;;5040758;28;20689;-69
2022/01/25 16:27:04;;;;;;;54.73;30.23;;;6.50;87.50;;;;;;5045851;28;20207;-69
2022/01/25 16:29:33;;;;;;;67.33;33.07;;;6.50;87.50;;;;;;5046316;28;20533;-70
2022/01/25 16:32:02;;;;;;;60.73;31.07;;;6.50;87.30;;;;;;5046164;28;20295;-69
2022/01/25 16:34:29;;;;;;;67.10;30.20;;;6.50;87.30;;;;;;5050291;28;20230;-69
2022/01/25 16:36:56;;;;;;;67.23;31.37;;;6.50;87.30;;;;;;5042242;28;20241;-70